createdAt,value
2018-06-12T00:01:36.103Z,94527.59
2018-06-12T00:04:05.423Z,94527.39
2018-06-12T00:06:34.823Z,94535.87
2018-06-12T00:09:05.752Z,94541.48
2018-06-12T00:11:35.104Z,94537.41
2018-06-12T00:14:04.460Z,94535.09
2018-06-12T00:16:33.740Z,94532.40
2018-06-12T00:19:03.010Z,94534.52
2018-06-12T00:21:32.280Z,94524.38
2018-06-12T00:24:01.593Z,94525.95
2018-06-12T00:26:30.865Z,94523.14
2018-06-12T00:29:00.169Z,94519.48
2018-06-12T00:31:29.443Z,94526.45
2018-06-12T00:33:58.953Z,94532.16
2018-06-12T00:36:28.273Z,94537.27
2018-06-12T00:38:58.587Z,94536.80
2018-06-12T00:41:27.856Z,94540.94
2018-06-12T00:43:57.169Z,94542.19
2018-06-12T00:46:26.493Z,94550.82
2018-06-12T00:48:55.884Z,94546.45
2018-06-12T00:51:25.185Z,94553.09
2018-06-12T00:53:54.524Z,94550.30
2018-06-12T00:56:35.854Z,94546.94
2018-06-12T00:59:05.219Z,94543.34
2018-06-12T01:01:34.683Z,94544.76
2018-06-12T01:04:04.029Z,94550.29
2018-06-12T01:06:33.316Z,94542.30
2018-06-12T01:09:02.689Z,94540.09
2018-06-12T01:11:32.099Z,94535.91
2018-06-12T01:14:01.499Z,94542.34
2018-06-12T01:16:30.838Z,94544.75
2018-06-12T01:19:00.304Z,94542.17
2018-06-12T01:21:29.602Z,94535.20
2018-06-12T01:23:58.980Z,94538.52
2018-06-12T01:26:28.276Z,94531.56
2018-06-12T01:28:57.589Z,94533.83
2018-06-12T01:31:26.924Z,94535.97
2018-06-12T01:33:56.224Z,94537.91
2018-06-12T01:36:25.540Z,94538.86
2018-06-12T01:38:54.844Z,94541.84
2018-06-12T01:41:24.177Z,94543.83
2018-06-12T01:43:53.488Z,94549.91
2018-06-12T01:46:22.833Z,94549.60
2018-06-12T01:48:52.187Z,94548.27
2018-06-12T01:51:21.517Z,94553.35
2018-06-12T01:53:50.827Z,94555.52
2018-06-12T01:56:20.217Z,94557.26
2018-06-12T01:58:49.513Z,94557.31
2018-06-12T02:01:18.832Z,94557.77
2018-06-12T02:03:48.156Z,94559.06
2018-06-12T02:06:17.440Z,94558.17
2018-06-12T02:08:46.816Z,94557.68
2018-06-12T02:11:16.124Z,94551.24
2018-06-12T02:13:45.424Z,94548.27
2018-06-12T02:16:14.724Z,94546.97
2018-06-12T02:18:44.064Z,94542.84
2018-06-12T02:21:13.444Z,94551.67
2018-06-12T02:23:42.766Z,94553.00
2018-06-12T02:26:12.112Z,94553.26
2018-06-12T02:28:41.437Z,94551.13
2018-06-12T02:31:10.733Z,94553.52
2018-06-12T02:33:40.140Z,94557.38
2018-06-12T02:36:09.463Z,94557.05
2018-06-12T02:38:38.714Z,94550.22
2018-06-12T02:41:08.077Z,94552.04
2018-06-12T02:43:37.341Z,94550.80
2018-06-12T02:46:06.678Z,94548.75
2018-06-12T02:48:35.948Z,94555.13
2018-06-12T02:51:05.205Z,94556.91
2018-06-12T02:53:34.481Z,94554.33
2018-06-12T02:56:03.744Z,94549.32
2018-06-12T02:58:33.081Z,94552.57
2018-06-12T03:01:02.385Z,94556.67
2018-06-12T03:03:31.632Z,94546.36
2018-06-12T03:06:00.993Z,94549.95
2018-06-12T03:08:30.261Z,94551.37
2018-06-12T03:10:59.584Z,94546.16
2018-06-12T03:13:29.049Z,94547.09
2018-06-12T03:15:58.380Z,94540.91
2018-06-12T03:18:27.648Z,94545.21
2018-06-12T03:20:56.969Z,94547.88
2018-06-12T03:23:26.416Z,94549.79
2018-06-12T03:25:58.365Z,94549.06
2018-06-12T03:28:27.777Z,94560.27
2018-06-12T03:30:57.042Z,94565.31
2018-06-12T03:33:26.301Z,94556.75
2018-06-12T03:35:55.681Z,94560.75
2018-06-12T03:38:24.974Z,94555.92
2018-06-12T03:40:54.288Z,94559.27
2018-06-12T03:43:23.552Z,94564.55
2018-06-12T03:45:52.897Z,94562.55
2018-06-12T03:48:22.187Z,94562.33
2018-06-12T03:50:51.476Z,94556.36
2018-06-12T03:53:20.749Z,94562.89
2018-06-12T03:55:50.074Z,94559.98
2018-06-12T03:58:19.427Z,94561.83
2018-06-12T04:00:48.763Z,94561.55
2018-06-12T04:03:18.028Z,94565.64
2018-06-12T04:05:47.360Z,94562.64
2018-06-12T04:08:16.675Z,94556.97
2018-06-12T04:10:45.982Z,94561.62
2018-06-12T04:13:15.283Z,94559.98
2018-06-12T04:15:44.614Z,94560.69
2018-06-12T04:18:13.915Z,94558.23
2018-06-12T04:20:43.266Z,94565.17
2018-06-12T04:23:12.756Z,94554.19
2018-06-12T04:25:42.049Z,94556.08
2018-06-12T04:28:11.313Z,94560.19
2018-06-12T04:30:40.680Z,94549.73
2018-06-12T04:33:09.938Z,94552.09
2018-06-12T04:35:39.287Z,94557.84
2018-06-12T04:38:08.631Z,94548.27
2018-06-12T04:40:37.988Z,94548.30
2018-06-12T04:43:07.245Z,94546.30
2018-06-12T04:45:36.541Z,94547.45
2018-06-12T04:48:05.788Z,94558.33
2018-06-12T04:50:35.064Z,94563.47
2018-06-12T04:53:04.388Z,94568.58
2018-06-12T04:55:33.712Z,94567.93
2018-06-12T04:58:03.108Z,94581.32
2018-06-12T05:00:32.451Z,94581.81
2018-06-12T05:03:01.750Z,94586.15
2018-06-12T05:05:31.082Z,94575.86
2018-06-12T05:08:00.350Z,94578.30
2018-06-12T05:10:29.677Z,94576.11
2018-06-12T05:12:58.957Z,94577.26
2018-06-12T05:15:28.353Z,94580.91
2018-06-12T05:17:57.659Z,94581.50
2018-06-12T05:20:28.311Z,94581.72
2018-06-12T05:22:57.612Z,94585.83
2018-06-12T05:25:26.890Z,94585.34
2018-06-12T05:27:56.169Z,94602.39
2018-06-12T05:30:25.457Z,94598.03
2018-06-12T05:32:55.761Z,94586.54
2018-06-12T05:35:25.120Z,94588.73
2018-06-12T05:37:54.405Z,94601.23
2018-06-12T05:40:23.847Z,94593.92
2018-06-12T05:42:53.146Z,94602.71
2018-06-12T05:45:22.812Z,94599.90
2018-06-12T05:47:52.077Z,94599.91
2018-06-12T05:50:21.620Z,94602.31
2018-06-12T05:52:50.953Z,94598.27
2018-06-12T05:55:20.407Z,94602.19
2018-06-12T05:57:49.871Z,94603.56
2018-06-12T06:00:19.222Z,94604.20
2018-06-12T06:02:48.629Z,94599.86
2018-06-12T06:05:17.947Z,94601.12
2018-06-12T06:07:47.280Z,94598.27
2018-06-12T06:10:16.746Z,94595.40
2018-06-12T06:12:46.212Z,94595.73
2018-06-12T06:15:15.528Z,94598.45
2018-06-12T06:17:45.057Z,94603.89
2018-06-12T06:20:14.624Z,94602.42
2018-06-12T06:22:44.144Z,94614.97
2018-06-12T06:25:13.580Z,94614.50
2018-06-12T06:27:43.020Z,94605.50
2018-06-12T06:30:12.340Z,94609.26
2018-06-12T06:32:41.680Z,94610.28
2018-06-12T06:35:11.044Z,94609.78
2018-06-12T06:37:40.372Z,94611.35
2018-06-12T06:40:09.675Z,94610.52
2018-06-12T06:42:38.983Z,94609.03
2018-06-12T06:45:08.302Z,94611.53
2018-06-12T06:47:37.652Z,94606.30
2018-06-12T06:50:07.004Z,94603.11
2018-06-12T06:52:36.328Z,94606.50
2018-06-12T06:55:06.475Z,94604.57
2018-06-12T06:57:35.856Z,94614.86
2018-06-12T07:00:05.473Z,94611.73
2018-06-12T07:02:34.905Z,94608.08
2018-06-12T07:05:04.216Z,94613.91
2018-06-12T07:07:33.539Z,94619.80
2018-06-12T07:10:02.862Z,94617.33
2018-06-12T07:12:32.263Z,94616.35
2018-06-12T07:15:01.597Z,94624.55
2018-06-12T07:17:30.885Z,94626.65
2018-06-12T07:20:00.231Z,94620.39
2018-06-12T07:22:29.542Z,94620.31
2018-06-12T07:24:58.946Z,94621.42
2018-06-12T07:27:28.236Z,94620.14
2018-06-12T07:29:57.573Z,94618.03
2018-06-12T07:32:27.066Z,94616.89
2018-06-12T07:34:56.397Z,94622.61
2018-06-12T07:37:25.755Z,94621.02
2018-06-12T07:39:55.185Z,94622.13
2018-06-12T07:42:24.478Z,94621.45
2018-06-12T07:44:53.819Z,94621.92
2018-06-12T07:47:23.263Z,94624.12
2018-06-12T07:49:52.574Z,94619.73
2018-06-12T07:52:21.904Z,94631.90
2018-06-12T07:54:51.303Z,94626.50
2018-06-12T07:57:20.585Z,94633.67
2018-06-12T07:59:49.926Z,94630.02
2018-06-12T08:02:19.221Z,94627.17
2018-06-12T08:04:48.547Z,94635.53
2018-06-12T08:07:17.884Z,94631.81
2018-06-12T08:09:47.244Z,94637.12
2018-06-12T08:12:16.546Z,94633.08
2018-06-12T08:14:45.860Z,94638.59
2018-06-12T08:17:15.213Z,94642.95
2018-06-12T08:19:44.504Z,94643.70
2018-06-12T08:22:13.780Z,94642.75
2018-06-12T08:24:43.084Z,94644.38
2018-06-12T08:27:12.428Z,94648.27
2018-06-12T08:29:41.716Z,94646.88
2018-06-12T08:32:11.033Z,94646.39
2018-06-12T08:34:40.317Z,94644.59
2018-06-12T08:37:09.575Z,94651.23
2018-06-12T08:39:38.920Z,94654.38
2018-06-12T08:42:08.222Z,94658.27
2018-06-12T08:44:37.548Z,94659.66
2018-06-12T08:47:06.852Z,94656.86
2018-06-12T08:49:36.160Z,94647.39
2018-06-12T08:52:05.535Z,94655.13
2018-06-12T08:54:34.791Z,94649.06
2018-06-12T08:57:04.086Z,94643.28
2018-06-12T08:59:33.469Z,94648.09
2018-06-12T09:02:02.900Z,94651.84
2018-06-12T09:04:32.221Z,94652.39
2018-06-12T09:07:01.533Z,94651.45
2018-06-12T09:09:30.800Z,94646.16
2018-06-12T09:12:00.119Z,94653.58
2018-06-12T09:14:29.457Z,94649.44
2018-06-12T09:16:58.764Z,94644.33
2018-06-12T09:19:28.073Z,94642.58
2018-06-12T09:21:57.436Z,94636.34
2018-06-12T09:24:26.758Z,94641.19
2018-06-12T09:26:56.089Z,94635.80
2018-06-12T09:29:25.376Z,94635.63
2018-06-12T09:31:54.641Z,94638.77
2018-06-12T09:34:34.745Z,94636.89
2018-06-12T09:37:04.047Z,94641.52
2018-06-12T09:39:33.542Z,94632.46
2018-06-12T09:42:02.825Z,94633.57
2018-06-12T09:44:32.242Z,94631.45
2018-06-12T09:47:01.700Z,94637.28
2018-06-12T09:49:31.037Z,94633.92
2018-06-12T09:52:00.532Z,94639.43
2018-06-12T09:54:29.886Z,94635.38
2018-06-12T09:56:59.175Z,94640.06
2018-06-12T09:59:28.535Z,94632.65
2018-06-12T10:01:57.859Z,94632.81
2018-06-12T10:04:27.306Z,94632.97
2018-06-12T10:06:57.561Z,94631.15
2018-06-12T10:09:26.834Z,94628.81
2018-06-12T10:11:56.318Z,94640.72
2018-06-12T10:14:25.596Z,94642.95
2018-06-12T10:16:54.881Z,94658.69
2018-06-12T10:19:24.244Z,94654.28
2018-06-12T10:21:53.624Z,94650.94
2018-06-12T10:24:22.926Z,94662.00
2018-06-12T10:26:52.233Z,94652.01
2018-06-12T10:29:21.705Z,94659.34
2018-06-12T10:31:50.979Z,94654.57
2018-06-12T10:34:20.289Z,94659.98
2018-06-12T10:36:49.571Z,94664.40
2018-06-12T10:39:18.907Z,94671.15
2018-06-12T10:41:48.189Z,94663.41
2018-06-12T10:44:17.449Z,94667.16
2018-06-12T10:46:46.704Z,94661.64
2018-06-12T10:49:15.968Z,94662.95
2018-06-12T10:51:45.252Z,94664.48
2018-06-12T10:54:14.512Z,94668.52
2018-06-12T10:56:43.794Z,94668.03
2018-06-12T10:59:13.063Z,94669.78
2018-06-12T11:01:42.420Z,94666.70
2018-06-12T11:04:11.705Z,94664.45
2018-06-12T11:06:41.017Z,94670.31
2018-06-12T11:09:10.296Z,94668.48
2018-06-12T11:11:39.586Z,94671.25
2018-06-12T11:14:08.935Z,94672.14
2018-06-12T11:16:38.233Z,94662.05
2018-06-12T11:19:07.585Z,94665.97
2018-06-12T11:21:36.858Z,94660.34
2018-06-12T11:24:06.165Z,94654.87
2018-06-12T11:26:35.553Z,94658.67
2018-06-12T11:29:04.874Z,94651.41
2018-06-12T11:31:34.132Z,94654.45
2018-06-12T11:34:03.513Z,94659.36
2018-06-12T11:36:32.788Z,94654.22
2018-06-12T11:39:02.064Z,94658.86
2018-06-12T11:41:31.419Z,94656.65
2018-06-12T11:44:00.764Z,94652.29
2018-06-12T11:46:30.440Z,94649.22
2018-06-12T11:48:59.714Z,94653.53
2018-06-12T11:51:29.009Z,94652.13
2018-06-12T11:53:58.252Z,94647.31
2018-06-12T11:56:27.509Z,94641.16
2018-06-12T11:58:56.773Z,94637.49
2018-06-12T12:01:26.238Z,94643.17
2018-06-12T12:03:55.503Z,94640.09
2018-06-12T12:06:24.774Z,94640.70
2018-06-12T12:08:54.032Z,94637.25
2018-06-12T12:11:23.336Z,94637.15
2018-06-12T12:13:52.688Z,94639.98
2018-06-12T12:16:21.977Z,94634.69
2018-06-12T12:18:51.239Z,94635.14
2018-06-12T12:21:20.581Z,94635.59
2018-06-12T12:23:49.896Z,94640.37
2018-06-12T12:26:19.270Z,94629.47
2018-06-12T12:28:48.580Z,94635.83
2018-06-12T12:31:17.866Z,94644.50
2018-06-12T12:33:47.184Z,94635.73
2018-06-12T12:36:16.562Z,94643.86
2018-06-12T12:38:47.047Z,94639.45
2018-06-12T12:41:16.784Z,94642.53
2018-06-12T12:43:46.129Z,94635.72
2018-06-12T12:46:15.473Z,94641.98
2018-06-12T12:48:45.765Z,94631.86
2018-06-12T12:51:15.081Z,94634.51
2018-06-12T12:53:44.339Z,94636.59
2018-06-12T12:56:13.629Z,94634.17
2018-06-12T12:58:42.890Z,94628.13
2018-06-12T13:01:12.172Z,94630.42
2018-06-12T13:03:41.487Z,94631.88
2018-06-12T13:06:10.844Z,94628.48
2018-06-12T13:08:40.148Z,94624.82
2018-06-12T13:11:09.499Z,94622.40
2018-06-12T13:13:38.784Z,94621.98
2018-06-12T13:16:08.129Z,94626.47
2018-06-12T13:18:37.434Z,94624.00
2018-06-12T13:21:06.744Z,94614.27
2018-06-12T13:23:38.568Z,94609.00
2018-06-12T13:26:10.302Z,94614.44
2018-06-12T13:28:40.014Z,94620.44
2018-06-12T13:31:09.328Z,94617.27
2018-06-12T13:33:38.710Z,94615.67
2018-06-12T13:36:07.995Z,94615.45
2018-06-12T13:38:37.416Z,94612.64
2018-06-12T13:41:06.887Z,94613.19
2018-06-12T13:43:36.205Z,94609.44
2018-06-12T13:46:08.150Z,94608.92
2018-06-12T13:48:38.369Z,94610.06
2018-06-12T13:51:09.530Z,94605.05
2018-06-12T13:53:38.808Z,94608.23
2018-06-12T13:56:08.328Z,94607.52
2018-06-12T13:58:37.996Z,94603.66
2018-06-12T14:01:08.940Z,94609.16
2018-06-12T14:03:38.980Z,94605.91
2018-06-12T14:06:08.394Z,94594.80
2018-06-12T14:08:37.712Z,94594.72
2018-06-12T14:11:07.097Z,94609.23
2018-06-12T14:13:36.511Z,94604.84
2018-06-12T14:16:05.749Z,94604.59
2018-06-12T14:18:35.089Z,94610.10
2018-06-12T14:21:04.625Z,94606.42
2018-06-12T14:23:33.894Z,94615.73
2018-06-12T14:26:03.177Z,94619.84
2018-06-12T14:28:32.520Z,94620.69
2018-06-12T14:31:01.837Z,94624.38
2018-06-12T14:33:31.192Z,94622.17
2018-06-12T14:36:00.461Z,94621.65
2018-06-12T14:38:29.840Z,94622.48
2018-06-12T14:40:59.269Z,94626.89
2018-06-12T14:43:28.598Z,94627.93
2018-06-12T14:45:57.997Z,94627.83
2018-06-12T14:48:27.356Z,94630.84
2018-06-12T14:50:56.644Z,94627.81
2018-06-12T14:53:27.025Z,94634.28
2018-06-12T14:55:56.454Z,94632.44
2018-06-12T14:58:26.467Z,94634.95
2018-06-12T15:00:55.880Z,94633.97
2018-06-12T15:03:25.200Z,94635.30
2018-06-12T15:05:54.572Z,94632.38
2018-06-12T15:08:23.909Z,94635.37
2018-06-12T15:10:53.244Z,94633.05
2018-06-12T15:13:22.540Z,94635.72
2018-06-12T15:15:51.925Z,94632.03
2018-06-12T15:18:21.283Z,94628.38
2018-06-12T15:20:50.742Z,94633.02
2018-06-12T15:23:20.092Z,94637.56
2018-06-12T15:25:49.446Z,94632.84
2018-06-12T15:28:18.988Z,94629.13
2018-06-12T15:30:48.357Z,94624.22
2018-06-12T15:33:17.879Z,94621.45
2018-06-12T15:35:47.165Z,94618.64
2018-06-12T15:38:16.440Z,94619.20
2018-06-12T15:40:45.804Z,94609.47
2018-06-12T15:43:15.065Z,94616.19
2018-06-12T15:45:44.368Z,94607.30
2018-06-12T15:48:13.752Z,94602.62
2018-06-12T15:50:43.052Z,94591.88
2018-06-12T15:53:12.330Z,94597.28
2018-06-12T15:55:41.608Z,94591.63
2018-06-12T15:58:10.943Z,94595.41
2018-06-12T16:00:40.340Z,94589.55
2018-06-12T16:03:10.850Z,94597.13
2018-06-12T16:05:40.428Z,94596.77
2018-06-12T16:08:09.732Z,94595.27
2018-06-12T16:10:39.060Z,94596.19
2018-06-12T16:13:08.493Z,94600.52
2018-06-12T16:15:37.880Z,94594.77
2018-06-12T16:18:07.185Z,94601.38
2018-06-12T16:20:36.645Z,94595.77
2018-06-12T16:23:08.148Z,94598.88
2018-06-12T16:25:39.364Z,94599.48
2018-06-12T16:28:09.568Z,94598.69
2018-06-12T16:30:38.891Z,94596.66
2018-06-12T16:33:08.200Z,94588.23
2018-06-12T16:35:37.536Z,94596.92
2018-06-12T16:38:06.866Z,94588.78
2018-06-12T16:40:36.272Z,94592.70
2018-06-12T16:43:05.585Z,94588.66
2018-06-12T16:45:34.968Z,94590.06
2018-06-12T16:48:04.547Z,94593.08
2018-06-12T16:50:33.815Z,94594.30
2018-06-12T16:53:03.119Z,94591.86
2018-06-12T16:55:32.407Z,94600.59
2018-06-12T16:58:01.749Z,94596.61
2018-06-12T17:00:31.103Z,94596.76
2018-06-12T17:03:00.384Z,94595.22
2018-06-12T17:05:29.756Z,94590.02
2018-06-12T17:07:59.046Z,94589.48
2018-06-12T17:10:28.386Z,94594.70
2018-06-12T17:12:57.672Z,94592.76
2018-06-12T17:15:27.014Z,94593.18
2018-06-12T17:17:56.461Z,94598.27
2018-06-12T17:20:25.732Z,94605.00
2018-06-12T17:22:55.086Z,94608.42
2018-06-12T17:25:24.442Z,94606.00
2018-06-12T17:27:53.744Z,94593.81
2018-06-12T17:30:23.045Z,94593.36
2018-06-12T17:32:52.377Z,94595.84
2018-06-12T17:35:21.778Z,94600.29
2018-06-12T17:37:51.063Z,94597.74
2018-06-12T17:40:20.388Z,94598.03
2018-06-12T17:42:49.748Z,94596.95
2018-06-12T17:45:19.416Z,94602.88
2018-06-12T17:47:48.768Z,94602.40
2018-06-12T17:50:18.073Z,94597.01
2018-06-12T17:52:47.568Z,94598.59
2018-06-12T17:55:16.876Z,94602.36
2018-06-12T17:57:46.205Z,94610.38
2018-06-12T18:00:15.609Z,94606.67
2018-06-12T18:02:45.101Z,94609.42
2018-06-12T18:05:14.419Z,94622.11
2018-06-12T18:07:43.848Z,94622.23
2018-06-12T18:10:13.232Z,94621.35
2018-06-12T18:12:42.575Z,94620.26
2018-06-12T18:15:12.029Z,94623.24
2018-06-12T18:17:41.432Z,94619.55
2018-06-12T18:20:10.783Z,94622.02
2018-06-12T18:22:40.164Z,94624.88
2018-06-12T18:25:09.508Z,94621.81
2018-06-12T18:27:38.866Z,94618.52
2018-06-12T18:30:08.279Z,94615.50
2018-06-12T18:32:37.604Z,94626.91
2018-06-12T18:35:06.937Z,94631.66
2018-06-12T18:37:36.260Z,94640.67
2018-06-12T18:40:08.476Z,94637.27
2018-06-12T18:42:37.816Z,94637.19
2018-06-12T18:45:07.256Z,94628.37
2018-06-12T18:47:40.641Z,94639.91
2018-06-12T18:50:09.936Z,94641.80
2018-06-12T18:52:39.304Z,94647.86
2018-06-12T18:55:08.720Z,94637.05
2018-06-12T18:57:38.648Z,94640.28
2018-06-12T19:00:08.236Z,94640.30
2018-06-12T19:02:37.532Z,94642.68
2018-06-12T19:05:06.917Z,94639.98
2018-06-12T19:07:36.200Z,94638.73
2018-06-12T19:10:05.518Z,94635.96
2018-06-12T19:12:34.929Z,94630.98
2018-06-12T19:15:04.228Z,94637.77
2018-06-12T19:17:33.511Z,94637.66
2018-06-12T19:20:02.864Z,94630.28
2018-06-12T19:22:32.183Z,94636.39
2018-06-12T19:25:01.484Z,94634.57
2018-06-12T19:27:30.789Z,94634.09
2018-06-12T19:30:00.123Z,94632.19
2018-06-12T19:32:29.411Z,94640.80
2018-06-12T19:34:58.700Z,94640.14
2018-06-12T19:37:28.068Z,94648.29
2018-06-12T19:39:57.333Z,94646.58
2018-06-12T19:42:26.631Z,94648.25
2018-06-12T19:44:55.941Z,94654.00
2018-06-12T19:47:25.344Z,94654.55
2018-06-12T19:49:54.596Z,94664.03
2018-06-12T19:52:23.864Z,94660.53
2018-06-12T19:54:53.137Z,94668.05
2018-06-12T19:57:23.517Z,94666.27
2018-06-12T19:59:52.912Z,94674.43
2018-06-12T20:02:22.240Z,94675.03
2018-06-12T20:04:51.584Z,94675.31
2018-06-12T20:07:21.893Z,94679.06
2018-06-12T20:09:51.242Z,94680.32
2018-06-12T20:12:20.669Z,94681.72
2018-06-12T20:14:49.997Z,94687.66
2018-06-12T20:17:19.370Z,94690.02
2018-06-12T20:19:48.728Z,94687.58
2018-06-12T20:22:18.123Z,94692.47
2018-06-12T20:24:47.672Z,94689.98
2018-06-12T20:27:17.040Z,94692.39
2018-06-12T20:29:46.345Z,94690.43
2018-06-12T20:32:15.746Z,94694.16
2018-06-12T20:34:45.294Z,94690.47
2018-06-12T20:37:14.848Z,94694.41
2018-06-12T20:39:44.338Z,94689.03
2018-06-12T20:42:14.111Z,94694.50
2018-06-12T20:44:43.917Z,94693.02
2018-06-12T20:47:13.419Z,94689.10
2018-06-12T20:49:42.740Z,94695.73
2018-06-12T20:52:12.120Z,94694.39
2018-06-12T20:54:41.511Z,94695.13
2018-06-12T20:57:10.851Z,94707.47
2018-06-12T20:59:40.212Z,94706.67
2018-06-12T21:02:09.844Z,94711.59
2018-06-12T21:04:39.196Z,94718.32
2018-06-12T21:07:08.613Z,94710.78
2018-06-12T21:09:38.498Z,94714.27
2018-06-12T21:12:08.024Z,94713.70
2018-06-12T21:14:37.745Z,94720.81
2018-06-12T21:17:07.326Z,94721.83
2018-06-12T21:19:36.656Z,94718.03
2018-06-12T21:22:06.148Z,94721.16
2018-06-12T21:24:35.773Z,94722.45
2018-06-12T21:27:05.128Z,94718.37
2018-06-12T21:29:34.438Z,94723.02
2018-06-12T21:32:03.792Z,94717.47
2018-06-12T21:34:33.079Z,94718.48
2018-06-12T21:37:02.432Z,94715.00
2018-06-12T21:39:31.780Z,94725.75
2018-06-12T21:42:01.174Z,94718.88
2018-06-12T21:44:30.484Z,94714.96
2018-06-12T21:46:59.800Z,94720.48
2018-06-12T21:49:29.264Z,94715.83
2018-06-12T21:51:58.522Z,94722.45
2018-06-12T21:54:27.865Z,94717.57
2018-06-12T21:56:57.388Z,94714.03
2018-06-12T21:59:26.726Z,94707.44
2018-06-12T22:01:56.120Z,94710.09
2018-06-12T22:04:25.410Z,94709.23
2018-06-12T22:06:54.699Z,94703.73
2018-06-12T22:09:23.962Z,94705.11
2018-06-12T22:11:53.253Z,94704.72
2018-06-12T22:14:22.801Z,94711.84
2018-06-12T22:16:52.120Z,94709.73
2018-06-12T22:19:21.402Z,94711.50
2018-06-12T22:21:50.682Z,94709.61
2018-06-12T22:24:19.949Z,94707.27
2018-06-12T22:26:49.294Z,94714.79
2018-06-12T22:29:18.644Z,94712.45
2018-06-12T22:31:47.901Z,94718.51
2018-06-12T22:34:17.247Z,94714.91
2018-06-12T22:36:46.501Z,94718.49
2018-06-12T22:39:15.832Z,94720.55
2018-06-12T22:41:45.139Z,94720.23
2018-06-12T22:44:14.500Z,94720.33
2018-06-12T22:46:43.770Z,94720.16
2018-06-12T22:49:13.070Z,94715.95
2018-06-12T22:51:42.371Z,94710.46
2018-06-12T22:54:11.679Z,94703.23
2018-06-12T22:56:41.020Z,94701.01
2018-06-12T22:59:10.303Z,94706.17
2018-06-12T23:01:39.592Z,94708.83
2018-06-12T23:04:08.880Z,94716.27
2018-06-12T23:06:38.153Z,94716.46
2018-06-12T23:09:08.449Z,94712.45
2018-06-12T23:11:37.880Z,94713.06
2018-06-12T23:14:07.140Z,94717.70
2018-06-12T23:16:36.466Z,94722.36
2018-06-12T23:19:05.812Z,94722.63
2018-06-12T23:21:48.159Z,94716.36
2018-06-12T23:24:17.436Z,94720.64
2018-06-12T23:26:46.807Z,94720.96
2018-06-12T23:29:16.125Z,94730.52
2018-06-12T23:31:45.528Z,94718.49
2018-06-12T23:34:14.871Z,94724.67
2018-06-12T23:36:44.453Z,94730.66
2018-06-12T23:39:13.801Z,94726.09
2018-06-12T23:41:43.170Z,94727.37
2018-06-12T23:44:12.485Z,94727.81
2018-06-12T23:46:41.817Z,94730.86
2018-06-12T23:49:11.194Z,94731.38
2018-06-12T23:51:40.506Z,94738.05
2018-06-12T23:54:09.847Z,94739.77
2018-06-12T23:56:39.168Z,94736.92
2018-06-12T23:59:08.525Z,94735.11
